Time;durP1;ratioP1;P1;durP2;ratioP2;P2;SDS_P1;SDS_P2;PMS_P1;PMS_P2;Temp;Humidity;BMP_temperature;BMP_pressure;BME280_temperature;BME280_humidity;BME280_pressure;Samples;Min_cycle;Max_cycle;Signal;HPM_P1;HPM_P2
2021/07/10 00:00:37;;;;;;;1.20;0.90;;;;;;;;;;5034862;28;20257;-47
2021/07/10 00:03:04;;;;;;;1.35;1.05;;;;;;;;;;5035416;28;20678;-47
2021/07/10 00:05:30;;;;;;;1.90;1.00;;;;;;;;;;5033944;28;20222;-47
2021/07/10 00:07:56;;;;;;;1.35;1.23;;;;;;;;;;5032692;28;20188;-47
2021/07/10 00:10:22;;;;;;;1.73;1.02;;;;;;;;;;5035160;28;20176;-47
2021/07/10 00:12:48;;;;;;;2.70;1.10;;;;;;;;;;5034885;28;20211;-47
2021/07/10 00:15:15;;;;;;;2.20;1.25;;;;;;;;;;5034200;28;20454;-47
2021/07/10 00:17:41;;;;;;;3.40;1.10;;;;;;;;;;5033749;28;20714;-47
2021/07/10 00:20:08;;;;;;;1.67;1.00;;;;;;;;;;5034641;28;20181;-47
2021/07/10 00:22:34;;;;;;;1.10;1.00;;;;;;;;;;5026651;28;20564;-47
2021/07/10 00:25:01;;;;;;;1.63;1.10;;;;;;;;;;5034469;28;20183;-47
2021/07/10 00:27:27;;;;;;;1.50;1.20;;;;;;;;;;5034000;28;20180;-47
2021/07/10 00:29:53;;;;;;;1.77;1.30;;;;;;;;;;5034286;28;20200;-47
2021/07/10 00:32:19;;;;;;;1.02;1.00;;;;;;;;;;5034474;28;20226;-47
2021/07/10 00:34:45;;;;;;;2.33;1.13;;;;;;;;;;5033930;28;20192;-47
2021/07/10 00:37:11;;;;;;;2.13;1.00;;;;;;;;;;5031866;28;20196;-47
2021/07/10 00:39:37;;;;;;;1.33;0.95;;;;;;;;;;5034628;28;20267;-47
2021/07/10 00:42:03;;;;;;;3.17;1.10;;;;;;;;;;5034170;28;20439;-47
2021/07/10 00:44:29;;;;;;;1.80;1.10;;;;;;;;;;5035024;28;20179;-47
2021/07/10 00:46:55;;;;;;;2.30;0.98;;;;;;;;;;5033923;28;20188;-47
2021/07/10 00:49:21;;;;;;;1.20;1.10;;;;;;;;;;5033447;28;20219;-47
2021/07/10 00:51:47;;;;;;;2.20;1.67;;;;;;;;;;5029868;28;20184;-47
2021/07/10 00:54:13;;;;;;;1.17;1.17;;;;;;;;;;5016346;28;20226;-47
2021/07/10 00:56:39;;;;;;;2.28;1.08;;;;;;;;;;5033776;28;20187;-46
2021/07/10 00:59:06;;;;;;;2.92;1.25;;;;;;;;;;5034215;28;20180;-46
2021/07/10 01:01:32;;;;;;;1.42;1.00;;;;;;;;;;5033919;28;20219;-46
2021/07/10 01:03:59;;;;;;;0.90;0.90;;;;;;;;;;5019921;28;20180;-46
2021/07/10 01:06:25;;;;;;;3.13;0.90;;;;;;;;;;5033725;28;20263;-46
2021/07/10 01:08:50;;;;;;;2.03;1.10;;;;;;;;;;5039025;28;20279;-46
2021/07/10 01:11:17;;;;;;;2.17;1.20;;;;;;;;;;5035006;28;20175;-46
2021/07/10 01:13:43;;;;;;;2.65;1.17;;;;;;;;;;5034245;28;20164;-46
2021/07/10 01:16:09;;;;;;;1.45;1.27;;;;;;;;;;5033449;28;20176;-47
2021/07/10 01:18:35;;;;;;;11.60;3.97;;;;;;;;;;5033600;28;20211;-47
2021/07/10 01:21:01;;;;;;;39.85;10.20;;;;;;;;;;5033750;28;20188;-47
2021/07/10 01:23:27;;;;;;;42.33;11.00;;;;;;;;;;5034284;28;20176;-47
2021/07/10 01:25:53;;;;;;;31.45;8.50;;;;;;;;;;5033173;28;20263;-47
2021/07/10 01:28:20;;;;;;;42.05;9.68;;;;;;;;;;5033725;28;20420;-47
2021/07/10 01:30:47;;;;;;;32.47;8.25;;;;;;;;;;5036653;28;20453;-47
2021/07/10 01:33:13;;;;;;;26.98;7.10;;;;;;;;;;5037217;28;20190;-47
2021/07/10 01:35:40;;;;;;;35.80;8.63;;;;;;;;;;5035809;28;20187;-47
2021/07/10 01:38:06;;;;;;;29.80;8.20;;;;;;;;;;5040274;28;20222;-48
2021/07/10 01:40:33;;;;;;;27.00;7.60;;;;;;;;;;5036221;28;20269;-48
2021/07/10 01:43:03;;;;;;;35.28;9.07;;;;;;;;;;5037382;28;20523;-50
2021/07/10 01:45:30;;;;;;;32.85;9.00;;;;;;;;;;5037546;28;20194;-48
2021/07/10 01:47:56;;;;;;;27.83;8.10;;;;;;;;;;5034962;28;20198;-48
2021/07/10 01:50:22;;;;;;;28.33;8.13;;;;;;;;;;5033269;28;20578;-48
2021/07/10 01:52:48;;;;;;;28.45;9.63;;;;;;;;;;5037496;28;20191;-47
2021/07/10 01:55:14;;;;;;;27.10;7.78;;;;;;;;;;5037193;28;20186;-47
2021/07/10 01:57:42;;;;;;;35.13;9.00;;;;;;;;;;5036370;28;20226;-47
2021/07/10 02:00:27;;;;;;;35.13;9.45;;;;;;;;;;5018821;28;20195;-47
2021/07/10 02:02:54;;;;;;;27.67;8.15;;;;;;;;;;5035440;28;20203;-47
2021/07/10 02:05:21;;;;;;;28.55;8.07;;;;;;;;;;5036951;28;20783;-47
2021/07/10 02:07:47;;;;;;;23.63;7.85;;;;;;;;;;5035724;28;20238;-47
2021/07/10 02:10:14;;;;;;;32.83;9.07;;;;;;;;;;5037071;28;20175;-47
2021/07/10 02:12:41;;;;;;;29.33;8.20;;;;;;;;;;5037411;28;20171;-47
2021/07/10 02:15:08;;;;;;;23.80;7.30;;;;;;;;;;5036998;28;20193;-47
2021/07/10 02:17:34;;;;;;;22.45;7.38;;;;;;;;;;5036424;28;20738;-47
2021/07/10 02:20:00;;;;;;;25.10;7.53;;;;;;;;;;5031077;28;20176;-48
2021/07/10 02:22:26;;;;;;;20.55;7.68;;;;;;;;;;5036942;28;20164;-47
2021/07/10 02:24:52;;;;;;;18.98;7.38;;;;;;;;;;5036904;28;20554;-47
2021/07/10 02:27:19;;;;;;;20.02;7.05;;;;;;;;;;5036226;28;20188;-47
2021/07/10 02:29:45;;;;;;;17.95;7.15;;;;;;;;;;5037006;28;20176;-47
2021/07/10 02:32:11;;;;;;;22.42;7.30;;;;;;;;;;5036969;28;20230;-47
2021/07/10 02:34:37;;;;;;;17.63;6.45;;;;;;;;;;5036291;28;20216;-47
2021/07/10 02:37:04;;;;;;;17.85;5.63;;;;;;;;;;5028662;28;20208;-47
2021/07/10 02:39:30;;;;;;;21.17;5.85;;;;;;;;;;5016923;28;20555;-47
2021/07/10 02:41:55;;;;;;;12.90;5.70;;;;;;;;;;5016736;28;20196;-47
2021/07/10 02:44:21;;;;;;;15.65;5.70;;;;;;;;;;5027343;28;20504;-48
2021/07/10 02:46:47;;;;;;;18.25;6.32;;;;;;;;;;5031131;28;20267;-48
2021/07/10 02:49:13;;;;;;;14.88;5.47;;;;;;;;;;5022339;28;20529;-48
2021/07/10 02:51:39;;;;;;;16.92;5.82;;;;;;;;;;5036242;28;20240;-48
2021/07/10 02:54:06;;;;;;;14.13;5.35;;;;;;;;;;5036166;28;20210;-47
2021/07/10 02:56:32;;;;;;;16.08;5.13;;;;;;;;;;5034979;28;20188;-47
2021/07/10 02:58:58;;;;;;;15.02;5.32;;;;;;;;;;5036324;28;20175;-48
2021/07/10 03:01:24;;;;;;;11.70;4.85;;;;;;;;;;5036250;28;20180;-48
2021/07/10 03:03:50;;;;;;;14.18;5.15;;;;;;;;;;5035619;28;20211;-48
2021/07/10 03:06:16;;;;;;;14.73;5.25;;;;;;;;;;5034833;28;20499;-47
2021/07/10 03:08:43;;;;;;;11.80;4.35;;;;;;;;;;5035668;28;20504;-47
2021/07/10 03:11:09;;;;;;;12.88;4.95;;;;;;;;;;5036110;28;20233;-47
2021/07/10 03:13:35;;;;;;;16.67;4.88;;;;;;;;;;5035976;28;20215;-47
2021/07/10 03:16:02;;;;;;;9.40;4.50;;;;;;;;;;5035114;28;20195;-47
2021/07/10 03:18:28;;;;;;;11.48;5.03;;;;;;;;;;5034892;28;20222;-47
2021/07/10 03:20:54;;;;;;;11.85;4.43;;;;;;;;;;5036155;28;20198;-47
2021/07/10 03:23:20;;;;;;;11.88;4.22;;;;;;;;;;5035880;28;20453;-47
2021/07/10 03:25:47;;;;;;;14.07;4.80;;;;;;;;;;5026831;28;20188;-47
2021/07/10 03:28:13;;;;;;;10.73;3.88;;;;;;;;;;5031624;28;20292;-47
2021/07/10 03:30:39;;;;;;;8.88;3.90;;;;;;;;;;5036023;28;20196;-47
2021/07/10 03:33:05;;;;;;;6.35;3.55;;;;;;;;;;5035725;28;20258;-47
2021/07/10 03:35:31;;;;;;;9.60;3.80;;;;;;;;;;5028993;28;20471;-47
2021/07/10 03:37:57;;;;;;;8.48;3.50;;;;;;;;;;5017430;28;20215;-47
2021/07/10 03:40:24;;;;;;;8.18;3.17;;;;;;;;;;5028232;28;20183;-47
2021/07/10 03:42:50;;;;;;;5.88;3.20;;;;;;;;;;5028385;28;20477;-47
2021/07/10 03:45:16;;;;;;;5.55;2.80;;;;;;;;;;5032272;28;20590;-47
2021/07/10 03:47:43;;;;;;;5.10;2.80;;;;;;;;;;5034488;28;20215;-47
2021/07/10 03:50:10;;;;;;;4.70;3.03;;;;;;;;;;5035073;28;20505;-47
2021/07/10 03:52:36;;;;;;;6.80;2.92;;;;;;;;;;5033806;28;20487;-47
2021/07/10 03:55:04;;;;;;;5.35;3.00;;;;;;;;;;5035043;28;20187;-47
2021/07/10 03:57:30;;;;;;;4.43;2.40;;;;;;;;;;5034391;28;20200;-47
2021/07/10 03:59:56;;;;;;;3.90;2.63;;;;;;;;;;5035069;28;20214;-47
2021/07/10 04:02:22;;;;;;;4.90;2.50;;;;;;;;;;5018424;28;20212;-47
2021/07/10 04:04:48;;;;;;;4.07;2.80;;;;;;;;;;5029899;28;20187;-47
2021/07/10 04:07:14;;;;;;;3.20;2.10;;;;;;;;;;5034528;28;20219;-47
2021/07/10 04:09:40;;;;;;;3.53;2.33;;;;;;;;;;5035039;28;20203;-47
2021/07/10 04:12:06;;;;;;;3.00;2.20;;;;;;;;;;5034134;28;20660;-47
2021/07/10 04:14:35;;;;;;;3.75;2.28;;;;;;;;;;5026706;28;20191;-47
2021/07/10 04:17:01;;;;;;;3.60;2.20;;;;;;;;;;5034086;28;20274;-47
2021/07/10 04:19:27;;;;;;;5.70;2.38;;;;;;;;;;5034627;28;20187;-47
2021/07/10 04:21:53;;;;;;;4.32;2.42;;;;;;;;;;5022566;28;20279;-47
2021/07/10 04:24:19;;;;;;;3.20;2.00;;;;;;;;;;5026673;28;20198;-47
2021/07/10 04:26:46;;;;;;;3.75;2.60;;;;;;;;;;5035981;28;20160;-47
2021/07/10 04:29:12;;;;;;;4.10;2.00;;;;;;;;;;5050125;28;20200;-47
2021/07/10 04:31:38;;;;;;;3.80;1.90;;;;;;;;;;5034775;28;20180;-47
2021/07/10 04:34:04;;;;;;;5.53;2.10;;;;;;;;;;5034368;28;20179;-47
2021/07/10 04:36:30;;;;;;;1.85;1.70;;;;;;;;;;5034129;28;20508;-47
2021/07/10 04:38:56;;;;;;;3.17;1.85;;;;;;;;;;5033389;28;20191;-47
2021/07/10 04:41:22;;;;;;;2.40;2.05;;;;;;;;;;5014899;28;20192;-47
2021/07/10 04:43:47;;;;;;;4.28;1.75;;;;;;;;;;5017786;28;20184;-47
2021/07/10 04:46:13;;;;;;;2.40;1.70;;;;;;;;;;5033933;28;20194;-47
2021/07/10 04:48:39;;;;;;;5.30;1.67;;;;;;;;;;5034132;28;20341;-47
2021/07/10 04:51:06;;;;;;;1.80;1.63;;;;;;;;;;5015701;28;20263;-47
2021/07/10 04:53:32;;;;;;;2.42;1.42;;;;;;;;;;5018047;28;20436;-47
2021/07/10 04:55:58;;;;;;;2.25;1.40;;;;;;;;;;5033826;28;20184;-47
2021/07/10 04:58:24;;;;;;;2.25;1.67;;;;;;;;;;5033336;28;20478;-47
2021/07/10 05:00:50;;;;;;;4.22;1.88;;;;;;;;;;5034422;28;20164;-47
2021/07/10 05:03:16;;;;;;;3.13;1.35;;;;;;;;;;5034226;28;20443;-47
2021/07/10 05:05:42;;;;;;;4.93;1.95;;;;;;;;;;5036649;28;20179;-47
2021/07/10 05:08:08;;;;;;;3.90;1.80;;;;;;;;;;5030358;28;20195;-47
2021/07/10 05:10:35;;;;;;;5.00;2.03;;;;;;;;;;5018130;28;20227;-47
2021/07/10 05:13:01;;;;;;;3.42;2.00;;;;;;;;;;5018274;28;20184;-47
2021/07/10 05:15:27;;;;;;;2.97;2.20;;;;;;;;;;5033823;28;20187;-47
2021/07/10 05:17:53;;;;;;;2.47;2.28;;;;;;;;;;5032235;28;20208;-47
2021/07/10 05:20:19;;;;;;;4.97;2.20;;;;;;;;;;5031630;28;20522;-47
2021/07/10 05:22:45;;;;;;;3.38;1.80;;;;;;;;;;5038005;28;20168;-47
2021/07/10 05:25:12;;;;;;;2.42;2.15;;;;;;;;;;5032481;28;20515;-46
2021/07/10 05:27:38;;;;;;;2.92;2.42;;;;;;;;;;5034698;28;20195;-47
2021/07/10 05:30:06;;;;;;;2.10;1.90;;;;;;;;;;5027682;28;20551;-47
2021/07/10 05:32:32;;;;;;;2.30;1.77;;;;;;;;;;5038132;28;20199;-47
2021/07/10 05:34:58;;;;;;;4.15;2.15;;;;;;;;;;5037655;28;20184;-47
2021/07/10 05:37:24;;;;;;;2.28;1.67;;;;;;;;;;5036684;28;20203;-47
2021/07/10 05:39:51;;;;;;;3.45;1.95;;;;;;;;;;5017229;28;20444;-47
2021/07/10 05:42:17;;;;;;;2.05;1.90;;;;;;;;;;5017791;28;20223;-47
2021/07/10 05:44:43;;;;;;;2.10;1.90;;;;;;;;;;5018191;28;20175;-47
2021/07/10 05:47:09;;;;;;;2.75;1.63;;;;;;;;;;5028946;28;20203;-47
2021/07/10 05:49:35;;;;;;;1.38;1.27;;;;;;;;;;5028375;28;20258;-47
2021/07/10 05:52:01;;;;;;;2.75;1.92;;;;;;;;;;5037556;28;20877;-47
2021/07/10 05:54:27;;;;;;;2.92;2.13;;;;;;;;;;5037760;28;20191;-47
2021/07/10 05:56:53;;;;;;;3.55;2.75;;;;;;;;;;5036739;28;20200;-47
2021/07/10 05:59:19;;;;;;;2.30;1.90;;;;;;;;;;5032332;28;20187;-47
2021/07/10 06:01:45;;;;;;;2.30;1.80;;;;;;;;;;5037485;28;20172;-47
2021/07/10 06:04:11;;;;;;;3.50;2.30;;;;;;;;;;5037360;28;20195;-47
2021/07/10 06:06:37;;;;;;;2.33;2.10;;;;;;;;;;5036842;28;20195;-47
2021/07/10 06:09:03;;;;;;;2.45;2.25;;;;;;;;;;5036370;28;20188;-47
2021/07/10 06:11:29;;;;;;;2.35;2.15;;;;;;;;;;5036857;28;20172;-47
2021/07/10 06:13:55;;;;;;;3.38;2.22;;;;;;;;;;5036253;28;20190;-47
2021/07/10 06:16:21;;;;;;;7.25;2.58;;;;;;;;;;5035804;28;20207;-47
2021/07/10 06:18:47;;;;;;;3.20;2.60;;;;;;;;;;5036166;28;20279;-47
2021/07/10 06:21:13;;;;;;;6.07;3.30;;;;;;;;;;5024434;28;20461;-47
2021/07/10 06:23:43;;;;;;;3.95;2.95;;;;;;;;;;5036862;28;20179;-47
2021/07/10 06:26:09;;;;;;;3.33;2.38;;;;;;;;;;5022776;28;20192;-47
2021/07/10 06:28:35;;;;;;;4.30;3.10;;;;;;;;;;5027807;28;20603;-47
2021/07/10 06:31:01;;;;;;;5.18;2.25;;;;;;;;;;5017070;28;20215;-47
2021/07/10 06:33:27;;;;;;;2.10;2.00;;;;;;;;;;5024807;28;20306;-47
2021/07/10 06:35:53;;;;;;;2.28;2.10;;;;;;;;;;5035871;28;20180;-47
2021/07/10 06:38:19;;;;;;;3.80;3.13;;;;;;;;;;5036088;28;20516;-47
2021/07/10 06:40:45;;;;;;;5.53;3.30;;;;;;;;;;5035210;28;20176;-47
2021/07/10 06:43:11;;;;;;;3.78;2.97;;;;;;;;;;5035374;28;20172;-47
2021/07/10 06:45:37;;;;;;;3.97;3.05;;;;;;;;;;5035024;28;20163;-47
2021/07/10 06:48:03;;;;;;;3.20;2.45;;;;;;;;;;5030359;28;20177;-47
2021/07/10 06:50:30;;;;;;;3.72;2.70;;;;;;;;;;5031381;28;20195;-47
2021/07/10 06:52:56;;;;;;;3.30;2.40;;;;;;;;;;5034891;28;20191;-47
2021/07/10 06:55:22;;;;;;;4.18;3.63;;;;;;;;;;5035652;28;20202;-47
2021/07/10 06:57:48;;;;;;;3.33;3.03;;;;;;;;;;5020187;28;20478;-47
2021/07/10 07:00:15;;;;;;;4.05;3.25;;;;;;;;;;5036266;28;20192;-47
2021/07/10 07:02:41;;;;;;;3.78;3.47;;;;;;;;;;5036410;28;20171;-47
2021/07/10 07:05:08;;;;;;;3.83;3.53;;;;;;;;;;5036260;28;20226;-47
2021/07/10 07:07:34;;;;;;;4.90;3.15;;;;;;;;;;5034951;28;20188;-47
2021/07/10 07:10:00;;;;;;;4.95;3.25;;;;;;;;;;5035934;28;20176;-47
2021/07/10 07:12:26;;;;;;;4.28;3.15;;;;;;;;;;5036359;28;20466;-47
2021/07/10 07:14:52;;;;;;;5.15;3.17;;;;;;;;;;5036235;28;20305;-47
2021/07/10 07:17:18;;;;;;;3.85;3.45;;;;;;;;;;5024317;28;20204;-47
2021/07/10 07:19:44;;;;;;;4.85;4.05;;;;;;;;;;5026273;28;20266;-47
2021/07/10 07:22:10;;;;;;;5.05;3.95;;;;;;;;;;5035155;28;20374;-47
2021/07/10 07:24:36;;;;;;;4.57;4.07;;;;;;;;;;5034990;28;20879;-47
2021/07/10 07:27:02;;;;;;;6.40;5.10;;;;;;;;;;5027381;28;20276;-48
2021/07/10 07:29:28;;;;;;;5.28;4.78;;;;;;;;;;5030883;28;20202;-47
2021/07/10 07:31:54;;;;;;;4.95;4.45;;;;;;;;;;5035371;28;20188;-47
2021/07/10 07:34:20;;;;;;;5.15;4.50;;;;;;;;;;5035606;28;20194;-47
2021/07/10 07:36:46;;;;;;;5.32;4.00;;;;;;;;;;5030602;28;20176;-47
2021/07/10 07:39:12;;;;;;;5.50;4.28;;;;;;;;;;5031771;28;20519;-47
2021/07/10 07:41:39;;;;;;;8.05;5.57;;;;;;;;;;5035394;28;20175;-47
2021/07/10 07:44:06;;;;;;;5.55;4.93;;;;;;;;;;5032647;28;20188;-47
2021/07/10 07:46:32;;;;;;;7.38;5.28;;;;;;;;;;5036294;28;20183;-47
2021/07/10 07:48:58;;;;;;;8.55;5.30;;;;;;;;;;5054247;28;20187;-47
2021/07/10 07:51:24;;;;;;;6.22;4.88;;;;;;;;;;5054968;28;20203;-47
2021/07/10 07:53:50;;;;;;;6.15;4.93;;;;;;;;;;5045603;28;20218;-47
2021/07/10 07:56:16;;;;;;;8.15;5.82;;;;;;;;;;5034574;28;20482;-47
2021/07/10 07:58:42;;;;;;;6.95;5.45;;;;;;;;;;5035024;28;20195;-47
2021/07/10 08:01:09;;;;;;;7.85;5.10;;;;;;;;;;5035106;28;20185;-47
2021/07/10 08:03:35;;;;;;;6.50;5.90;;;;;;;;;;5032658;28;20188;-47
2021/07/10 08:06:02;;;;;;;5.00;4.50;;;;;;;;;;5034158;28;20563;-47
2021/07/10 08:08:28;;;;;;;7.03;5.10;;;;;;;;;;5034433;28;20231;-47
2021/07/10 08:10:54;;;;;;;6.82;6.18;;;;;;;;;;5034720;28;20180;-47
2021/07/10 08:13:20;;;;;;;5.60;5.05;;;;;;;;;;5032838;28;20184;-47
2021/07/10 08:15:47;;;;;;;6.38;5.68;;;;;;;;;;5032624;28;20195;-47
2021/07/10 08:18:13;;;;;;;4.78;3.70;;;;;;;;;;5034046;28;20187;-47
2021/07/10 08:20:39;;;;;;;5.60;4.85;;;;;;;;;;5033911;28;20180;-47
2021/07/10 08:23:05;;;;;;;4.40;3.90;;;;;;;;;;5032743;28;20217;-47
2021/07/10 08:25:31;;;;;;;5.75;5.25;;;;;;;;;;5015342;28;20473;-47
2021/07/10 08:27:58;;;;;;;6.07;4.38;;;;;;;;;;5014552;28;20176;-47
2021/07/10 08:30:24;;;;;;;8.13;6.75;;;;;;;;;;5028390;28;20188;-47
2021/07/10 08:32:50;;;;;;;8.38;6.80;;;;;;;;;;5034681;28;20535;-47
2021/07/10 08:35:17;;;;;;;8.57;7.20;;;;;;;;;;5033181;28;20489;-47
2021/07/10 08:37:43;;;;;;;6.45;5.57;;;;;;;;;;5020374;28;20207;-47
2021/07/10 08:40:10;;;;;;;7.40;6.60;;;;;;;;;;5014824;28;20172;-47
2021/07/10 08:42:36;;;;;;;7.68;6.97;;;;;;;;;;5017502;28;20263;-47
2021/07/10 08:45:05;;;;;;;7.50;6.10;;;;;;;;;;5017346;28;20188;-47
2021/07/10 08:47:34;;;;;;;7.07;6.38;;;;;;;;;;5014168;28;20208;-47
2021/07/10 08:50:00;;;;;;;7.82;6.57;;;;;;;;;;5026582;28;20188;-47
2021/07/10 08:52:26;;;;;;;8.73;7.18;;;;;;;;;;5034370;28;20194;-47
2021/07/10 08:54:52;;;;;;;7.05;5.80;;;;;;;;;;5023470;28;20218;-46
2021/07/10 08:57:20;;;;;;;7.30;6.60;;;;;;;;;;5033710;28;20207;-47
2021/07/10 08:59:46;;;;;;;6.93;5.47;;;;;;;;;;5034314;28;20247;-47
2021/07/10 09:02:12;;;;;;;6.28;5.68;;;;;;;;;;5033949;28;20175;-47
2021/07/10 09:04:39;;;;;;;7.25;5.55;;;;;;;;;;5029689;28;20191;-47
2021/07/10 09:07:05;;;;;;;6.32;5.18;;;;;;;;;;5033479;28;20490;-47
2021/07/10 09:09:45;;;;;;;6.43;5.78;;;;;;;;;;5034384;28;20210;-47
2021/07/10 09:12:13;;;;;;;6.20;5.60;;;;;;;;;;5027024;28;20184;-47
2021/07/10 09:14:39;;;;;;;6.07;4.68;;;;;;;;;;5014324;28;20187;-47
2021/07/10 09:17:21;;;;;;;6.90;5.80;;;;;;;;;;5013991;28;20204;-47
2021/07/10 09:19:49;;;;;;;5.90;5.35;;;;;;;;;;5027559;28;20172;-47
2021/07/10 09:22:25;;;;;;;6.07;4.97;;;;;;;;;;5033391;28;20199;-47
2021/07/10 09:24:52;;;;;;;4.97;4.20;;;;;;;;;;5018214;28;20183;-47
2021/07/10 09:27:18;;;;;;;4.68;4.25;;;;;;;;;;5027288;28;20196;-47
2021/07/10 09:29:45;;;;;;;5.13;4.63;;;;;;;;;;5033606;28;20271;-48
2021/07/10 09:32:12;;;;;;;6.20;4.75;;;;;;;;;;5031745;28;20188;-48
2021/07/10 09:34:39;;;;;;;6.28;4.35;;;;;;;;;;5033798;28;20287;-47
2021/07/10 09:37:11;;;;;;;4.15;3.70;;;;;;;;;;5033558;28;20295;-47
2021/07/10 09:39:43;;;;;;;6.75;4.80;;;;;;;;;;5033801;28;20203;-47
2021/07/10 09:42:10;;;;;;;5.22;4.28;;;;;;;;;;5016561;28;20264;-47
2021/07/10 09:44:42;;;;;;;4.18;3.88;;;;;;;;;;5017927;28;20212;-47
2021/07/10 09:47:08;;;;;;;5.43;4.38;;;;;;;;;;5020458;28;20453;-47
2021/07/10 09:49:34;;;;;;;5.47;4.97;;;;;;;;;;5033601;28;20593;-47
2021/07/10 09:52:11;;;;;;;5.43;4.70;;;;;;;;;;5036163;28;20222;-47
2021/07/10 09:54:39;;;;;;;4.60;3.60;;;;;;;;;;5037353;28;20203;-47
2021/07/10 09:57:05;;;;;;;4.13;3.83;;;;;;;;;;5036752;28;20213;-47
2021/07/10 09:59:34;;;;;;;4.65;4.00;;;;;;;;;;5037538;28;20218;-47
2021/07/10 10:02:02;;;;;;;3.95;3.58;;;;;;;;;;5036910;28;20215;-47
2021/07/10 10:04:33;;;;;;;3.92;3.50;;;;;;;;;;5037356;28;20187;-47
2021/07/10 10:07:00;;;;;;;4.85;3.95;;;;;;;;;;5036718;28;20184;-48
2021/07/10 10:09:27;;;;;;;3.90;3.53;;;;;;;;;;5037508;28;20175;-47
2021/07/10 10:12:05;;;;;;;4.40;4.00;;;;;;;;;;5036354;28;20183;-48
2021/07/10 10:14:33;;;;;;;3.85;3.55;;;;;;;;;;5037480;28;20167;-48
2021/07/10 10:17:00;;;;;;;4.82;3.72;;;;;;;;;;5036986;28;20175;-48
2021/07/10 10:19:28;;;;;;;4.18;3.78;;;;;;;;;;5034054;28;20215;-47
2021/07/10 10:21:55;;;;;;;4.85;4.32;;;;;;;;;;5037244;28;20458;-47
2021/07/10 10:24:22;;;;;;;6.97;4.22;;;;;;;;;;5036955;28;20183;-47
2021/07/10 10:26:49;;;;;;;4.45;4.05;;;;;;;;;;5036620;28;20186;-47
2021/07/10 10:29:16;;;;;;;4.00;3.67;;;;;;;;;;5036732;28;20191;-47
2021/07/10 10:31:43;;;;;;;4.95;3.50;;;;;;;;;;5036383;28;20176;-47
2021/07/10 10:34:09;;;;;;;3.80;3.50;;;;;;;;;;5035077;28;20176;-48
2021/07/10 10:36:36;;;;;;;5.10;3.85;;;;;;;;;;5035853;28;20559;-47
2021/07/10 10:39:06;;;;;;;4.82;3.28;;;;;;;;;;5035272;28;20221;-47
2021/07/10 10:41:33;;;;;;;4.18;3.78;;;;;;;;;;5029475;28;20503;-47
2021/07/10 10:43:59;;;;;;;4.82;3.85;;;;;;;;;;5035978;28;20211;-47
2021/07/10 10:46:26;;;;;;;4.00;3.60;;;;;;;;;;5035678;28;20180;-47
2021/07/10 10:48:53;;;;;;;4.88;3.45;;;;;;;;;;5034509;28;20187;-47
2021/07/10 10:51:35;;;;;;;4.13;3.35;;;;;;;;;;5035993;28;20188;-47
2021/07/10 10:54:30;;;;;;;4.25;3.70;;;;;;;;;;5035626;28;20183;-47
2021/07/10 10:56:56;;;;;;;3.05;2.85;;;;;;;;;;5040654;28;20709;-48
2021/07/10 10:59:28;;;;;;;4.95;3.30;;;;;;;;;;5046788;28;20195;-48
2021/07/10 11:01:55;;;;;;;4.00;3.70;;;;;;;;;;5035206;28;20186;-48
2021/07/10 11:04:40;;;;;;;3.30;3.00;;;;;;;;;;5035252;28;20184;-48
2021/07/10 11:07:38;;;;;;;3.55;3.28;;;;;;;;;;5035887;28;20491;-48
2021/07/10 11:10:05;;;;;;;3.75;3.33;;;;;;;;;;5010390;28;20200;-48
2021/07/10 11:12:49;;;;;;;3.30;3.00;;;;;;;;;;5020497;28;20443;-48
2021/07/10 11:15:27;;;;;;;3.58;2.90;;;;;;;;;;5036104;28;20556;-48
2021/07/10 11:17:54;;;;;;;3.08;2.88;;;;;;;;;;5025726;28;20235;-48
2021/07/10 11:20:38;;;;;;;3.38;2.97;;;;;;;;;;5030863;28;20183;-48
2021/07/10 11:23:04;;;;;;;2.88;2.67;;;;;;;;;;5017586;28;20180;-48
2021/07/10 11:25:45;;;;;;;6.35;3.05;;;;;;;;;;5035895;28;20259;-48
2021/07/10 11:28:15;;;;;;;3.67;3.15;;;;;;;;;;5023906;28;20199;-48
2021/07/10 11:30:45;;;;;;;2.88;2.67;;;;;;;;;;5033783;28;20188;-48
2021/07/10 11:33:11;;;;;;;2.97;2.55;;;;;;;;;;5035836;28;20675;-48
2021/07/10 11:35:38;;;;;;;3.45;3.15;;;;;;;;;;5035572;28;20183;-48
2021/07/10 11:38:05;;;;;;;2.58;2.38;;;;;;;;;;5034340;28;20192;-48
2021/07/10 11:40:40;;;;;;;3.00;2.70;;;;;;;;;;5035265;28;20228;-48
2021/07/10 11:43:11;;;;;;;2.70;2.50;;;;;;;;;;5035215;28;20187;-48
2021/07/10 11:45:45;;;;;;;2.60;2.40;;;;;;;;;;5035288;28;20184;-48
2021/07/10 11:48:22;;;;;;;2.95;2.47;;;;;;;;;;5024146;28;20234;-48
2021/07/10 11:50:55;;;;;;;3.88;2.40;;;;;;;;;;5035257;28;20799;-48
2021/07/10 11:53:21;;;;;;;3.90;2.47;;;;;;;;;;5035385;28;20641;-48
2021/07/10 11:55:47;;;;;;;3.58;2.65;;;;;;;;;;5027960;28;20208;-48
2021/07/10 11:58:15;;;;;;;2.50;2.30;;;;;;;;;;5022380;28;20211;-48
2021/07/10 12:00:43;;;;;;;4.20;2.70;;;;;;;;;;5035195;28;20578;-48
2021/07/10 12:03:15;;;;;;;2.75;2.55;;;;;;;;;;5029802;28;20279;-48
2021/07/10 12:05:41;;;;;;;3.05;2.72;;;;;;;;;;5033299;28;20172;-48
2021/07/10 12:08:07;;;;;;;2.60;2.33;;;;;;;;;;5034954;28;20255;-48
2021/07/10 12:10:35;;;;;;;2.70;2.50;;;;;;;;;;5035041;28;20180;-48
2021/07/10 12:13:01;;;;;;;2.80;2.60;;;;;;;;;;5031352;28;20507;-48
2021/07/10 12:15:28;;;;;;;4.82;2.65;;;;;;;;;;5034034;28;20191;-48
2021/07/10 12:17:55;;;;;;;2.55;2.35;;;;;;;;;;5033870;28;20253;-48
2021/07/10 12:20:24;;;;;;;7.32;2.80;;;;;;;;;;5034372;28;20262;-48
2021/07/10 12:22:51;;;;;;;3.15;2.15;;;;;;;;;;5034722;28;20292;-48
2021/07/10 12:25:17;;;;;;;5.20;2.58;;;;;;;;;;5034322;28;20179;-48
2021/07/10 12:27:43;;;;;;;2.88;2.55;;;;;;;;;;5034219;28;20172;-48
2021/07/10 12:30:10;;;;;;;2.17;2.08;;;;;;;;;;5034764;28;20786;-48
2021/07/10 12:32:37;;;;;;;3.63;2.45;;;;;;;;;;5033941;28;20171;-48
2021/07/10 12:35:04;;;;;;;2.35;2.22;;;;;;;;;;5026332;28;20190;-48
2021/07/10 12:37:31;;;;;;;3.53;2.38;;;;;;;;;;5033501;28;20207;-48
2021/07/10 12:40:05;;;;;;;2.50;2.30;;;;;;;;;;5024352;28;20177;-48
2021/07/10 12:42:30;;;;;;;2.45;2.25;;;;;;;;;;5032542;28;20184;-48
2021/07/10 12:44:56;;;;;;;2.92;2.22;;;;;;;;;;5033790;28;20186;-48
2021/07/10 12:47:23;;;;;;;2.47;2.20;;;;;;;;;;5033451;28;20551;-48
2021/07/10 12:49:49;;;;;;;3.65;2.42;;;;;;;;;;5031138;28;20462;-48
2021/07/10 12:52:18;;;;;;;2.40;2.20;;;;;;;;;;5033702;28;20195;-48
2021/07/10 12:54:52;;;;;;;2.80;2.22;;;;;;;;;;5034558;28;20184;-48
2021/07/10 12:57:23;;;;;;;3.15;2.15;;;;;;;;;;5033382;28;20268;-48
2021/07/10 12:59:54;;;;;;;2.38;2.13;;;;;;;;;;5033821;28;20274;-48
2021/07/10 13:02:24;;;;;;;2.00;1.90;;;;;;;;;;5033458;28;20298;-48
2021/07/10 13:04:52;;;;;;;2.13;2.03;;;;;;;;;;5024572;28;20192;-48
2021/07/10 13:07:25;;;;;;;2.60;2.22;;;;;;;;;;5032287;28;20179;-48
2021/07/10 13:09:51;;;;;;;1.98;1.88;;;;;;;;;;5030999;28;20180;-48
2021/07/10 13:12:18;;;;;;;3.15;1.75;;;;;;;;;;5033724;28;20183;-48
2021/07/10 13:15:00;;;;;;;4.05;2.30;;;;;;;;;;5034421;28;20263;-48
2021/07/10 13:17:26;;;;;;;2.13;1.98;;;;;;;;;;5033144;28;20202;-48
2021/07/10 13:19:52;;;;;;;2.33;2.13;;;;;;;;;;5033392;28;20184;-48
2021/07/10 13:22:18;;;;;;;2.50;2.08;;;;;;;;;;5033758;28;20579;-48
2021/07/10 13:24:44;;;;;;;2.22;2.03;;;;;;;;;;5033722;28;20253;-48
2021/07/10 13:27:10;;;;;;;2.90;2.17;;;;;;;;;;5037244;28;20420;-48
2021/07/10 13:29:37;;;;;;;2.00;1.90;;;;;;;;;;5036255;28;20559;-48
2021/07/10 13:32:03;;;;;;;3.38;2.15;;;;;;;;;;5036301;28;20627;-48
2021/07/10 13:34:30;;;;;;;2.45;1.70;;;;;;;;;;5035839;28;20229;-48
2021/07/10 13:37:00;;;;;;;2.03;1.77;;;;;;;;;;5035698;28;20451;-48
2021/07/10 13:39:27;;;;;;;1.88;1.77;;;;;;;;;;5029196;28;20192;-48
2021/07/10 13:41:57;;;;;;;2.67;1.80;;;;;;;;;;5016562;28;20226;-48
2021/07/10 13:44:30;;;;;;;1.83;1.73;;;;;;;;;;5024034;28;20179;-48
2021/07/10 13:47:07;;;;;;;2.00;1.90;;;;;;;;;;5037405;28;20175;-48
2021/07/10 13:49:34;;;;;;;1.73;1.63;;;;;;;;;;5029641;28;20614;-48
2021/07/10 13:52:09;;;;;;;1.73;1.63;;;;;;;;;;5017582;28;20621;-48
2021/07/10 13:54:49;;;;;;;2.58;1.80;;;;;;;;;;5018252;28;20399;-48
2021/07/10 13:57:34;;;;;;;1.88;1.77;;;;;;;;;;5030097;28;20238;-48
2021/07/10 14:00:18;;;;;;;1.90;1.80;;;;;;;;;;5026173;28;20177;-48
2021/07/10 14:02:47;;;;;;;3.13;1.90;;;;;;;;;;5022438;28;20176;-48
2021/07/10 14:05:26;;;;;;;1.90;1.80;;;;;;;;;;5037332;28;20180;-48
2021/07/10 14:07:56;;;;;;;1.80;1.70;;;;;;;;;;5036581;28;20570;-48
2021/07/10 14:10:26;;;;;;;1.75;1.65;;;;;;;;;;5033599;28;20199;-48
2021/07/10 14:12:57;;;;;;;2.08;1.98;;;;;;;;;;5027115;28;20183;-48
2021/07/10 14:15:23;;;;;;;1.83;1.73;;;;;;;;;;5037272;28;20251;-48
2021/07/10 14:17:49;;;;;;;2.10;1.90;;;;;;;;;;5039967;28;20203;-48
2021/07/10 14:20:16;;;;;;;2.03;1.92;;;;;;;;;;5043252;28;20188;-48
2021/07/10 14:22:43;;;;;;;2.13;1.80;;;;;;;;;;5037230;28;20196;-48
2021/07/10 14:25:10;;;;;;;1.90;1.70;;;;;;;;;;5018461;28;20214;-48
2021/07/10 14:27:36;;;;;;;1.98;1.83;;;;;;;;;;5017019;28;20199;-48
2021/07/10 14:30:04;;;;;;;1.77;1.67;;;;;;;;;;5028104;28;20184;-48
2021/07/10 14:32:30;;;;;;;2.10;2.00;;;;;;;;;;5036954;28;20187;-48
2021/07/10 14:34:56;;;;;;;1.73;1.63;;;;;;;;;;5036893;28;20596;-48
2021/07/10 14:37:22;;;;;;;1.55;1.45;;;;;;;;;;5035981;28;20650;-48
2021/07/10 14:39:49;;;;;;;2.45;1.60;;;;;;;;;;5027944;28;20184;-48
2021/07/10 14:42:15;;;;;;;1.55;1.45;;;;;;;;;;5030117;28;20480;-48